createdAt,value
2023-03-15T00:02:02.831Z,0.09
2023-03-15T00:04:32.441Z,0.08
2023-03-15T00:07:01.558Z,0.09
2023-03-15T00:09:29.309Z,0.09
2023-03-15T00:11:57.080Z,0.08
2023-03-15T00:14:24.705Z,0.08
2023-03-15T00:16:52.294Z,0.07
2023-03-15T00:19:19.898Z,0.06
2023-03-15T00:21:47.525Z,0.02
2023-03-15T00:24:16.486Z,0.02
2023-03-15T00:26:44.087Z,0.00
2023-03-15T00:29:11.727Z,-0.02
2023-03-15T00:31:39.437Z,-0.03
2023-03-15T00:34:07.185Z,-0.06
2023-03-15T00:36:34.915Z,-0.07
2023-03-15T00:39:04.321Z,-0.07
2023-03-15T00:41:33.276Z,-0.09
2023-03-15T00:44:03.889Z,-0.10
2023-03-15T00:46:31.609Z,-0.12
2023-03-15T00:48:59.378Z,-0.14
2023-03-15T00:51:27.019Z,-0.15
2023-03-15T00:53:55.164Z,-0.15
2023-03-15T00:56:26.696Z,-0.16
2023-03-15T00:58:55.687Z,-0.17
2023-03-15T01:01:26.312Z,-0.18
2023-03-15T01:03:54.767Z,-0.19
2023-03-15T01:06:24.986Z,-0.21
2023-03-15T01:08:54.498Z,-0.22
2023-03-15T01:11:25.616Z,-0.23
2023-03-15T01:13:55.530Z,-0.25
2023-03-15T01:16:23.856Z,-0.25
2023-03-15T01:18:54.838Z,-0.28
2023-03-15T01:21:24.196Z,-0.31
2023-03-15T01:23:52.477Z,-0.32
2023-03-15T01:26:23.282Z,-0.34
2023-03-15T01:28:51.048Z,-0.35
2023-03-15T01:31:24.229Z,-0.38
2023-03-15T01:33:52.001Z,-0.40
2023-03-15T01:36:20.017Z,-0.43
2023-03-15T01:38:49.534Z,-0.45
2023-03-15T01:41:20.363Z,-0.50
2023-03-15T01:43:48.740Z,-0.52
2023-03-15T01:46:27.583Z,-0.57
2023-03-15T01:49:06.101Z,-0.57
2023-03-15T01:51:41.706Z,-0.60
2023-03-15T01:54:14.707Z,-0.63
2023-03-15T01:56:50.743Z,-0.63
2023-03-15T01:59:24.897Z,-0.65
2023-03-15T02:01:56.102Z,-0.67
2023-03-15T02:04:31.405Z,-0.68
2023-03-15T02:07:03.129Z,-0.71
2023-03-15T02:09:39.360Z,-0.72
2023-03-15T02:12:07.263Z,-0.72
2023-03-15T02:14:35.920Z,-0.73
2023-03-15T02:17:06.967Z,-0.74
2023-03-15T02:19:43.726Z,-0.74
2023-03-15T02:22:26.799Z,-0.78
2023-03-15T02:25:04.482Z,-0.79
2023-03-15T02:27:37.102Z,-0.80
2023-03-15T02:30:06.527Z,-0.80
2023-03-15T02:32:34.343Z,-0.77
2023-03-15T02:35:02.012Z,-0.76
2023-03-15T02:37:31.353Z,-0.74
2023-03-15T02:39:59.144Z,-0.72
2023-03-15T02:42:27.343Z,-0.71
2023-03-15T02:44:59.626Z,-0.71
2023-03-15T02:47:31.395Z,-0.69
2023-03-15T02:49:59.145Z,-0.70
2023-03-15T02:52:27.259Z,-0.70
2023-03-15T02:54:55.807Z,-0.71
2023-03-15T02:57:23.427Z,-0.74
2023-03-15T02:59:51.956Z,-0.79
2023-03-15T03:02:21.159Z,-0.81
2023-03-15T03:04:49.311Z,-0.84
2023-03-15T03:07:19.519Z,-0.84
2023-03-15T03:09:50.754Z,-0.86
2023-03-15T03:12:20.151Z,-0.87
2023-03-15T03:14:49.394Z,-0.88
2023-03-15T03:17:21.087Z,-0.90
2023-03-15T03:19:48.801Z,-0.89
2023-03-15T03:22:19.719Z,-0.90
2023-03-15T03:24:48.617Z,-0.92
2023-03-15T03:27:17.240Z,-0.93
2023-03-15T03:29:47.142Z,-0.96
2023-03-15T03:32:15.671Z,-0.99
2023-03-15T03:34:48.606Z,-1.00
2023-03-15T03:37:19.647Z,-1.04
2023-03-15T03:39:58.822Z,-1.04
2023-03-15T03:42:26.490Z,-1.07
2023-03-15T03:44:54.531Z,-1.06
2023-03-15T03:47:23.715Z,-1.06
2023-03-15T03:49:52.714Z,-1.07
2023-03-15T03:52:20.945Z,-1.06
2023-03-15T03:54:50.930Z,-1.04
2023-03-15T03:57:18.662Z,-1.00
2023-03-15T03:59:46.425Z,-0.94
2023-03-15T04:02:14.134Z,-0.87
2023-03-15T04:04:50.467Z,-0.82
2023-03-15T04:07:22.255Z,-0.78
2023-03-15T04:09:50.805Z,-0.74
2023-03-15T04:12:18.940Z,-0.71
2023-03-15T04:14:47.554Z,-0.69
2023-03-15T04:17:16.855Z,-0.65
2023-03-15T04:19:47.137Z,-0.62
2023-03-15T04:22:17.756Z,-0.59
2023-03-15T04:25:07.344Z,-0.57
2023-03-15T04:28:02.751Z,-0.54
2023-03-15T04:30:49.521Z,-0.52
2023-03-15T04:33:35.526Z,-0.52
2023-03-15T04:36:18.589Z,-0.52
2023-03-15T04:39:05.362Z,-0.50
2023-03-15T04:41:55.051Z,-0.48
2023-03-15T04:44:45.530Z,-0.47
2023-03-15T04:47:39.488Z,-0.46
2023-03-15T04:50:31.607Z,-0.44
2023-03-15T04:53:28.841Z,-0.42
2023-03-15T04:56:16.780Z,-0.40
2023-03-15T04:59:04.477Z,-0.35
2023-03-15T05:01:54.460Z,-0.31
2023-03-15T05:04:37.128Z,-0.24
2023-03-15T05:07:38.059Z,-0.21
2023-03-15T05:10:41.055Z,-0.17
2023-03-15T05:13:27.233Z,-0.14
2023-03-15T05:16:31.944Z,-0.12
2023-03-15T05:19:13.410Z,-0.11
2023-03-15T05:21:54.691Z,-0.11
2023-03-15T05:24:40.895Z,-0.11
2023-03-15T05:27:20.949Z,-0.12
2023-03-15T05:30:18.097Z,-0.15
2023-03-15T05:33:12.583Z,-0.15
2023-03-15T05:35:59.476Z,-0.17
2023-03-15T05:38:43.913Z,-0.17
2023-03-15T05:41:31.798Z,-0.16
2023-03-15T05:44:17.888Z,-0.18
2023-03-15T05:47:11.297Z,-0.20
2023-03-15T05:49:52.401Z,-0.19
2023-03-15T05:52:40.331Z,-0.18
2023-03-15T05:55:19.490Z,-0.20
2023-03-15T05:58:07.600Z,-0.17
2023-03-15T06:00:43.701Z,-0.15
2023-03-15T06:03:22.707Z,-0.14
2023-03-15T06:06:03.359Z,-0.10
2023-03-15T06:08:37.363Z,-0.07
2023-03-15T06:11:06.451Z,-0.05
2023-03-15T06:13:34.745Z,-0.01
2023-03-15T06:16:07.941Z,0.04
2023-03-15T06:18:38.808Z,0.07
2023-03-15T06:21:08.062Z,0.11
2023-03-15T06:23:35.929Z,0.15
2023-03-15T06:26:03.581Z,0.22
2023-03-15T06:28:32.638Z,0.24
2023-03-15T06:31:07.772Z,0.28
2023-03-15T06:33:40.243Z,0.32
2023-03-15T06:36:12.775Z,0.36
2023-03-15T06:38:41.847Z,0.41
2023-03-15T06:41:09.842Z,0.44
2023-03-15T06:43:38.464Z,0.50
2023-03-15T06:46:06.974Z,0.57
2023-03-15T06:48:35.013Z,0.65
2023-03-15T06:51:04.088Z,0.73
2023-03-15T06:53:34.721Z,0.80
2023-03-15T06:56:02.574Z,0.86
2023-03-15T06:58:30.201Z,0.91
2023-03-15T07:00:57.924Z,0.97
2023-03-15T07:03:25.614Z,1.04
2023-03-15T07:05:54.433Z,1.09
2023-03-15T07:08:22.996Z,1.13
2023-03-15T07:10:52.730Z,1.17
2023-03-15T07:13:21.037Z,1.20
2023-03-15T07:15:53.423Z,1.24
2023-03-15T07:18:21.277Z,1.26
2023-03-15T07:20:48.967Z,1.32
2023-03-15T07:23:16.608Z,1.37
2023-03-15T07:25:54.451Z,1.41
2023-03-15T07:28:24.857Z,1.45
2023-03-15T07:30:56.838Z,1.48
2023-03-15T07:33:26.005Z,1.52
2023-03-15T07:35:54.819Z,1.55
2023-03-15T07:38:23.377Z,1.61
2023-03-15T07:40:51.041Z,1.65
2023-03-15T07:43:18.851Z,1.69
2023-03-15T07:45:51.962Z,1.74
2023-03-15T07:48:19.811Z,1.79
2023-03-15T07:50:48.062Z,1.83
2023-03-15T07:53:15.961Z,1.90
2023-03-15T07:55:43.647Z,2.00
2023-03-15T07:58:11.488Z,2.11
2023-03-15T08:00:39.156Z,2.16
2023-03-15T08:03:08.251Z,2.20
2023-03-15T08:05:36.125Z,2.23
2023-03-15T08:08:03.957Z,2.30
2023-03-15T08:10:31.725Z,2.48
2023-03-15T08:12:59.417Z,2.59
2023-03-15T08:15:27.071Z,2.63
2023-03-15T08:17:54.676Z,2.67
2023-03-15T08:20:23.678Z,2.68
2023-03-15T08:22:51.607Z,2.73
2023-03-15T08:25:21.812Z,2.77
2023-03-15T08:27:49.843Z,2.79
2023-03-15T08:30:18.922Z,2.87
2023-03-15T08:32:47.928Z,2.91
2023-03-15T08:35:17.453Z,2.95
2023-03-15T08:37:47.881Z,3.00
2023-03-15T08:40:19.076Z,3.03
2023-03-15T08:42:47.052Z,3.17
2023-03-15T08:45:16.068Z,3.34
2023-03-15T08:47:43.788Z,3.48
2023-03-15T08:50:14.491Z,3.65
2023-03-15T08:52:42.535Z,3.82
2023-03-15T08:55:14.382Z,4.00
2023-03-15T08:57:42.959Z,4.25
2023-03-15T09:00:17.257Z,4.36
2023-03-15T09:02:45.020Z,4.31
2023-03-15T09:05:12.708Z,4.29
2023-03-15T09:07:42.788Z,4.27
2023-03-15T09:10:15.037Z,4.16
2023-03-15T09:12:43.209Z,4.11
2023-03-15T09:15:12.253Z,4.09
2023-03-15T09:17:39.996Z,4.05
2023-03-15T09:20:15.590Z,4.04
2023-03-15T09:22:43.420Z,4.07
2023-03-15T09:25:12.600Z,4.18
2023-03-15T09:27:40.286Z,4.33
2023-03-15T09:30:09.067Z,4.56
2023-03-15T09:32:36.873Z,4.62
2023-03-15T09:35:05.342Z,4.64
2023-03-15T09:37:33.110Z,4.61
2023-03-15T09:40:01.766Z,4.57
2023-03-15T09:42:42.045Z,4.55
2023-03-15T09:45:20.889Z,4.71
2023-03-15T09:48:01.259Z,4.86
2023-03-15T09:50:33.990Z,4.81
2023-03-15T09:53:04.004Z,4.81
2023-03-15T09:55:31.847Z,4.78
2023-03-15T09:58:02.658Z,4.76
2023-03-15T10:00:37.365Z,4.72
2023-03-15T10:03:09.735Z,4.75
2023-03-15T10:05:42.050Z,5.04
2023-03-15T10:08:12.647Z,5.09
2023-03-15T10:10:48.144Z,5.01
2023-03-15T10:13:32.345Z,4.91
2023-03-15T10:16:09.504Z,4.86
2023-03-15T10:18:51.856Z,5.14
2023-03-15T10:21:33.016Z,5.52
2023-03-15T10:24:05.682Z,5.85
2023-03-15T10:26:38.135Z,5.89
2023-03-15T10:29:14.876Z,5.88
2023-03-15T10:31:46.408Z,6.04
2023-03-15T10:34:16.257Z,6.32
2023-03-15T10:36:50.127Z,6.66
2023-03-15T10:39:19.339Z,6.88
2023-03-15T10:41:49.321Z,6.91
2023-03-15T10:44:21.440Z,6.85
2023-03-15T10:47:04.981Z,6.68
2023-03-15T10:49:39.119Z,6.60
2023-03-15T10:52:07.325Z,6.69
2023-03-15T10:54:36.477Z,6.95
2023-03-15T10:57:07.521Z,7.19
2023-03-15T10:59:37.405Z,7.45
2023-03-15T11:02:20.211Z,7.70
2023-03-15T11:04:51.164Z,7.91
2023-03-15T11:07:18.801Z,8.17
2023-03-15T11:09:53.279Z,8.37
2023-03-15T11:12:25.098Z,8.58
2023-03-15T11:14:59.427Z,8.65
2023-03-15T11:17:29.824Z,8.83
2023-03-15T11:20:09.261Z,8.93
2023-03-15T11:22:36.911Z,8.76
2023-03-15T11:25:04.957Z,8.54
2023-03-15T11:27:32.864Z,8.35
2023-03-15T11:30:04.406Z,8.11
2023-03-15T11:32:33.899Z,8.26
2023-03-15T11:35:06.409Z,8.58
2023-03-15T11:37:41.403Z,8.89
2023-03-15T11:40:17.452Z,9.22
2023-03-15T11:42:50.905Z,9.46
2023-03-15T11:45:29.014Z,9.71
2023-03-15T11:48:23.055Z,10.01
2023-03-15T11:50:53.958Z,10.10
2023-03-15T11:53:24.479Z,10.30
2023-03-15T11:55:54.820Z,10.58
2023-03-15T11:58:31.992Z,10.60
2023-03-15T12:01:04.680Z,10.55
2023-03-15T12:03:43.096Z,10.48
2023-03-15T12:06:35.511Z,10.36
2023-03-15T12:09:03.312Z,10.60
2023-03-15T12:11:43.508Z,11.02
2023-03-15T12:14:31.908Z,11.31
2023-03-15T12:17:42.560Z,11.54
2023-03-15T12:20:21.061Z,11.90
2023-03-15T12:22:52.482Z,12.24
2023-03-15T12:25:32.448Z,12.48
2023-03-15T12:28:00.938Z,12.63
2023-03-15T12:30:34.814Z,12.62
2023-03-15T12:35:40.596Z,12.94
2023-03-15T12:38:16.092Z,12.76
2023-03-15T12:40:53.971Z,12.40
2023-03-15T12:43:37.977Z,11.97
2023-03-15T12:46:06.285Z,11.76
2023-03-15T12:48:35.435Z,11.50
2023-03-15T12:51:11.516Z,11.04
2023-03-15T12:53:48.604Z,10.62
2023-03-15T12:56:41.954Z,10.02
2023-03-15T12:59:31.280Z,9.55
2023-03-15T13:02:00.865Z,9.18
2023-03-15T13:04:31.895Z,8.90
2023-03-15T13:07:15.077Z,8.81
2023-03-15T13:10:04.851Z,8.49
2023-03-15T13:12:40.662Z,7.98
2023-03-15T13:15:14.831Z,7.41
2023-03-15T13:17:48.513Z,7.07
2023-03-15T13:20:41.274Z,6.98
2023-03-15T13:23:16.136Z,7.20
2023-03-15T13:25:53.566Z,7.61
2023-03-15T13:28:24.580Z,7.97
2023-03-15T13:30:54.314Z,8.15
2023-03-15T13:33:25.133Z,8.38
2023-03-15T13:36:01.037Z,8.62
2023-03-15T13:38:32.154Z,8.84
2023-03-15T13:41:01.927Z,8.99
2023-03-15T13:43:32.180Z,9.04
2023-03-15T13:46:00.692Z,9.10
2023-03-15T13:48:30.326Z,9.15
2023-03-15T13:51:06.007Z,9.27
2023-03-15T13:53:49.065Z,9.45
2023-03-15T13:56:20.205Z,9.54
2023-03-15T13:58:50.181Z,9.52
2023-03-15T14:01:18.875Z,9.58
2023-03-15T14:03:54.038Z,9.58
2023-03-15T14:06:25.937Z,9.35
2023-03-15T14:08:56.081Z,9.32
2023-03-15T14:11:37.178Z,9.47
2023-03-15T14:14:21.935Z,9.69
2023-03-15T14:17:04.290Z,9.83
2023-03-15T14:19:34.962Z,9.93
2023-03-15T14:22:13.728Z,9.83
2023-03-15T14:24:45.389Z,9.85
2023-03-15T14:27:19.122Z,10.00
2023-03-15T14:29:49.448Z,10.19
2023-03-15T14:32:27.850Z,10.35
2023-03-15T14:37:00.028Z,10.69
2023-03-15T14:39:38.366Z,10.96
2023-03-15T14:42:12.246Z,11.07
2023-03-15T14:44:40.378Z,10.99
2023-03-15T14:47:13.538Z,10.91
2023-03-15T14:49:41.185Z,10.81
2023-03-15T14:52:14.512Z,10.45
2023-03-15T14:54:47.018Z,9.93
2023-03-15T14:57:14.868Z,9.50
2023-03-15T14:59:42.678Z,9.35
2023-03-15T15:02:17.965Z,9.31
2023-03-15T15:04:48.267Z,9.17
2023-03-15T15:07:20.653Z,9.18
2023-03-15T15:09:50.853Z,9.12
2023-03-15T15:12:19.158Z,9.07
2023-03-15T15:14:46.991Z,9.12
2023-03-15T15:17:14.938Z,9.18
2023-03-15T15:19:42.716Z,9.20
2023-03-15T15:22:11.946Z,9.17
2023-03-15T15:24:41.144Z,9.11
2023-03-15T15:27:10.685Z,9.05
2023-03-15T15:29:38.342Z,9.01
2023-03-15T15:32:06.333Z,8.94
2023-03-15T15:34:34.493Z,8.97
2023-03-15T15:37:02.668Z,8.88
2023-03-15T15:39:30.887Z,8.74
2023-03-15T15:42:00.024Z,8.52
2023-03-15T15:44:27.704Z,8.35
2023-03-15T15:46:55.843Z,8.20
2023-03-15T15:49:23.591Z,8.12
2023-03-15T15:51:52.162Z,7.97
2023-03-15T15:54:23.618Z,7.79
2023-03-15T15:56:53.396Z,7.72
2023-03-15T15:59:25.526Z,7.59
2023-03-15T16:02:00.707Z,7.42
2023-03-15T16:04:29.947Z,7.31
2023-03-15T16:07:01.504Z,7.22
2023-03-15T16:09:31.683Z,7.11
2023-03-15T16:11:59.891Z,7.08
2023-03-15T16:14:28.997Z,7.01
2023-03-15T16:16:56.764Z,6.99
2023-03-15T16:19:24.653Z,6.90
2023-03-15T16:21:54.493Z,6.80
2023-03-15T16:24:24.837Z,6.66
2023-03-15T16:26:58.404Z,6.56
2023-03-15T16:29:36.389Z,6.46
2023-03-15T16:32:16.468Z,6.40
2023-03-15T16:34:47.131Z,6.28
2023-03-15T16:37:18.010Z,6.17
2023-03-15T16:39:48.592Z,6.09
2023-03-15T16:42:18.417Z,5.98
2023-03-15T16:44:47.702Z,5.89
2023-03-15T16:47:48.485Z,5.78
2023-03-15T16:50:17.038Z,5.71
2023-03-15T16:52:50.730Z,5.63
2023-03-15T16:55:22.997Z,5.55
2023-03-15T16:57:50.906Z,5.42
2023-03-15T17:00:20.394Z,5.35
2023-03-15T17:02:51.862Z,5.25
2023-03-15T17:05:21.090Z,5.17
2023-03-15T17:07:50.955Z,5.08
2023-03-15T17:10:23.303Z,4.98
2023-03-15T17:12:52.401Z,4.87
2023-03-15T17:15:23.338Z,4.78
2023-03-15T17:17:53.754Z,4.69
2023-03-15T17:20:22.527Z,4.60
2023-03-15T17:22:52.377Z,4.54
2023-03-15T17:25:20.896Z,4.44
2023-03-15T17:27:50.172Z,4.36
2023-03-15T17:30:20.405Z,4.28
2023-03-15T17:32:49.008Z,4.21
2023-03-15T17:35:20.573Z,4.14
2023-03-15T17:37:48.785Z,4.09
2023-03-15T17:40:23.454Z,4.03
2023-03-15T17:42:51.632Z,3.97
2023-03-15T17:45:21.837Z,3.91
2023-03-15T17:47:50.723Z,3.86
2023-03-15T17:50:20.156Z,3.82
2023-03-15T17:52:51.160Z,3.73
2023-03-15T17:55:22.324Z,3.66
2023-03-15T17:57:55.217Z,3.60
2023-03-15T18:00:24.895Z,3.53
2023-03-15T18:02:55.917Z,3.46
2023-03-15T18:05:27.299Z,3.37
2023-03-15T18:08:00.045Z,3.31
2023-03-15T18:10:34.427Z,3.26
2023-03-15T18:13:02.495Z,3.20
2023-03-15T18:15:30.195Z,3.14
2023-03-15T18:17:58.089Z,3.10
2023-03-15T18:20:27.993Z,3.07
2023-03-15T18:22:55.863Z,3.01
2023-03-15T18:25:25.532Z,2.95
2023-03-15T18:27:53.730Z,2.90
2023-03-15T18:30:24.114Z,2.85
2023-03-15T18:32:53.454Z,2.80
2023-03-15T18:35:23.165Z,2.77
2023-03-15T18:37:54.102Z,2.73
2023-03-15T18:40:22.208Z,2.66
2023-03-15T18:42:49.903Z,2.59
2023-03-15T18:45:21.340Z,2.56
2023-03-15T18:47:49.338Z,2.52
2023-03-15T18:50:18.144Z,2.48
2023-03-15T18:52:46.511Z,2.45
2023-03-15T18:55:17.935Z,2.40
2023-03-15T18:57:46.528Z,2.35
2023-03-15T19:00:17.011Z,2.30
2023-03-15T19:02:50.027Z,2.26
2023-03-15T19:05:18.416Z,2.20
2023-03-15T19:07:48.223Z,2.16
2023-03-15T19:10:19.620Z,2.13
2023-03-15T19:12:48.510Z,2.08
2023-03-15T19:15:19.743Z,2.04
2023-03-15T19:17:51.531Z,2.00
2023-03-15T19:20:27.925Z,1.95
2023-03-15T19:22:56.412Z,1.91
2023-03-15T19:25:25.671Z,1.85
2023-03-15T19:27:57.564Z,1.82
2023-03-15T19:30:26.910Z,1.79
2023-03-15T19:32:55.151Z,1.73
2023-03-15T19:35:23.242Z,1.69
2023-03-15T19:37:51.553Z,1.64
2023-03-15T19:40:20.416Z,1.61
2023-03-15T19:42:57.176Z,1.57
2023-03-15T19:45:26.665Z,1.55
2023-03-15T19:47:54.621Z,1.52
2023-03-15T19:50:22.974Z,1.48
2023-03-15T19:52:53.518Z,1.45
2023-03-15T19:55:22.508Z,1.41
2023-03-15T19:57:52.250Z,1.38
2023-03-15T20:00:23.392Z,1.32
2023-03-15T20:02:51.848Z,1.27
2023-03-15T20:08:04.864Z,1.08
2023-03-15T20:10:33.662Z,1.00
2023-03-15T20:13:03.725Z,0.95
2023-03-15T20:15:33.399Z,0.92
2023-03-15T20:18:02.534Z,0.91
2023-03-15T20:20:31.460Z,0.87
2023-03-15T20:23:06.730Z,0.84
2023-03-15T20:25:36.232Z,0.81
2023-03-15T20:28:05.997Z,0.79
2023-03-15T20:30:34.735Z,0.78
2023-03-15T20:33:06.777Z,0.76
2023-03-15T20:35:35.609Z,0.73
2023-03-15T20:38:07.152Z,0.70
2023-03-15T20:40:35.786Z,0.69
2023-03-15T20:43:05.595Z,0.65
2023-03-15T20:45:34.252Z,0.64
2023-03-15T20:48:02.172Z,0.61
2023-03-15T20:50:36.120Z,0.61
2023-03-15T20:53:05.147Z,0.56
2023-03-15T20:55:33.422Z,0.53
2023-03-15T20:58:01.320Z,0.50
2023-03-15T21:00:31.971Z,0.47
2023-03-15T21:02:59.874Z,0.42
2023-03-15T21:05:29.031Z,0.37
2023-03-15T21:07:56.868Z,0.31
2023-03-15T21:10:25.237Z,0.20
2023-03-15T21:12:53.295Z,0.13
2023-03-15T21:15:21.192Z,0.05
2023-03-15T21:17:50.343Z,-0.03
2023-03-15T21:20:19.139Z,-0.11
2023-03-15T21:22:47.755Z,-0.17
2023-03-15T21:25:16.262Z,-0.20
2023-03-15T21:27:44.232Z,-0.25
2023-03-15T21:30:14.448Z,-0.28
2023-03-15T21:32:42.953Z,-0.29
2023-03-15T21:35:13.345Z,-0.31
2023-03-15T21:37:41.488Z,-0.32
2023-03-15T21:40:11.230Z,-0.35
2023-03-15T21:42:39.590Z,-0.36
2023-03-15T21:45:08.984Z,-0.44
2023-03-15T21:47:36.955Z,-0.49
2023-03-15T21:50:05.157Z,-0.56
2023-03-15T21:52:34.489Z,-0.63
2023-03-15T21:55:02.614Z,-0.70
2023-03-15T21:57:30.564Z,-0.74
2023-03-15T21:59:58.537Z,-0.77
2023-03-15T22:02:26.922Z,-0.82
2023-03-15T22:04:55.151Z,-0.86
2023-03-15T22:07:23.210Z,-0.90
2023-03-15T22:09:53.333Z,-0.93
2023-03-15T22:12:21.693Z,-0.97
2023-03-15T22:14:56.892Z,-1.02
2023-03-15T22:17:32.433Z,-1.08
2023-03-15T22:20:00.578Z,-1.10
2023-03-15T22:22:28.881Z,-1.17
2023-03-15T22:24:58.329Z,-1.22
2023-03-15T22:27:26.892Z,-1.28
2023-03-15T22:29:54.715Z,-1.32
2023-03-15T22:32:22.714Z,-1.34
2023-03-15T22:34:50.435Z,-1.35
2023-03-15T22:37:18.170Z,-1.32
2023-03-15T22:39:46.143Z,-1.30
2023-03-15T22:42:15.220Z,-1.29
2023-03-15T22:44:42.990Z,-1.27
2023-03-15T22:47:11.149Z,-1.27
2023-03-15T22:49:38.931Z,-1.26
2023-03-15T22:52:07.307Z,-1.26
2023-03-15T22:54:35.397Z,-1.27
2023-03-15T22:57:03.650Z,-1.30
2023-03-15T22:59:32.935Z,-1.31
2023-03-15T23:02:00.755Z,-1.35
2023-03-15T23:04:28.903Z,-1.38
2023-03-15T23:06:56.815Z,-1.40
2023-03-15T23:09:24.904Z,-1.43
2023-03-15T23:11:52.775Z,-1.46
2023-03-15T23:14:20.697Z,-1.46
2023-03-15T23:16:50.156Z,-1.48
2023-03-15T23:19:20.218Z,-1.48
2023-03-15T23:21:48.013Z,-1.49
2023-03-15T23:24:17.364Z,-1.50
2023-03-15T23:26:45.339Z,-1.52
2023-03-15T23:29:13.455Z,-1.54
2023-03-15T23:31:42.966Z,-1.55
2023-03-15T23:34:13.615Z,-1.56
2023-03-15T23:36:44.136Z,-1.56
2023-03-15T23:39:12.953Z,-1.58
2023-03-15T23:41:40.804Z,-1.58
2023-03-15T23:44:08.726Z,-1.60
2023-03-15T23:46:37.120Z,-1.60
2023-03-15T23:49:06.698Z,-1.62
2023-03-15T23:51:36.580Z,-1.64
2023-03-15T23:54:04.600Z,-1.64
2023-03-15T23:56:34.568Z,-1.66
2023-03-15T23:59:02.416Z,-1.68
